Shana — WDH2657 — position and weather

sailwx.info

Track history (hours):
 
Tides and Currents Weather Stations Pressure Air Temp Water Temp Dewpoint Dewpoint Depression Visibility Wind Speed Wind Dir Waves Ship Positions

Shana

Owner: Kaiser, John M, Seattle, WA. More information available from US FCC via Universal Licensing System and Coast Guard Vessel Documentation Center.

Last reported at 2018-Jul-20 16:31 UTC. Time now 2018-Jul-20 16:41 UTC.
Position N 47°38' W 122°23'.

Length 32 m; draft 3 m.

MMSI: 367599860.

Date/timePositionNaut miles runAvg speedWind from/ knotsBaromVisibWave heightAir tempDewpointWater temp
2018-Jul-20 16:31N 47°38' W 122°23'0 0.0
2018-Jul-20 16:01N 47°38' W 122°23'0 0.0
2018-Jul-20 15:31N 47°38' W 122°23'0 0.0
2018-Jul-20 15:01N 47°38' W 122°23'0 0.0
2018-Jul-20 14:30N 47°38' W 122°23'0 0.0
2018-Jul-20 14:00N 47°38' W 122°23'0 0.0
2018-Jul-20 13:31N 47°38' W 122°23'0 0.0
2018-Jul-20 13:00N 47°38' W 122°23'0 0.0
2018-Jul-20 12:31N 47°38' W 122°23'0 0.0
2018-Jul-20 12:01N 47°38' W 122°23'0 0.0
2018-Jul-20 11:30N 47°38' W 122°23'0 0.0
2018-Jul-20 11:00N 47°38' W 122°23'0 0.0
2018-Jul-20 10:30N 47°38' W 122°23'0 0.0
2018-Jul-20 10:01N 47°38' W 122°23'0 0.0
2018-Jul-20 09:30N 47°38' W 122°23'0 0.0
2018-Jul-20 09:01N 47°38' W 122°23'0 0.0
2018-Jul-20 08:31N 47°38' W 122°23'0 0.0
2018-Jul-20 08:01N 47°38' W 122°23'0 0.0
2018-Jul-20 07:30N 47°38' W 122°23'0 0.0
2018-Jul-20 07:01N 47°38' W 122°23'0 0.0
2018-Jul-20 06:31N 47°38' W 122°23'0 0.0
2018-Jul-20 06:00N 47°38' W 122°23'0 0.0
2018-Jul-20 05:29N 47°38' W 122°23'0 0.0
2018-Jul-20 05:00N 47°38' W 122°23'0 0.0
2018-Jul-20 04:30N 47°38' W 122°23'0 0.0
2018-Jul-20 03:59N 47°38' W 122°23'0 0.0
2018-Jul-20 03:27N 47°38' W 122°23'0 0.0
2018-Jul-20 03:01N 47°38' W 122°23'0 0.0
2018-Jul-20 02:30N 47°38' W 122°23'0 0.0
2018-Jul-20 02:00N 47°38' W 122°23'0 0.0
2018-Jul-20 01:30N 47°38' W 122°23'0 0.0
2018-Jul-20 01:00N 47°38' W 122°23'0 0.0
2018-Jul-20 00:30N 47°38' W 122°23'0 0.0
2018-Jul-20 00:00N 47°38' W 122°23'0 0.0
2018-Jul-19 23:29N 47°38' W 122°23'0 0.8
2018-Jul-19 23:00N 47°37' W 122°23'4 8.4
2018-Jul-19 22:31N 47°34' W 122°27'4 8.1
2018-Jul-19 22:00N 47°30' W 122°27'4 8.2
2018-Jul-19 21:31N 47°26' W 122°24'0 0.2
2018-Jul-19 21:00N 47°26' W 122°24'510.6
2018-Jul-19 20:30N 47°31' W 122°27'2 4.9
2018-Jul-19 20:01N 47°34' W 122°28'4 7.2
2018-Jul-19 19:31N 47°37' W 122°27'2 4.6
2018-Jul-19 18:59N 47°38' W 122°23'0 0.0
2018-Jul-19 18:30N 47°38' W 122°23'0 0.0
2018-Jul-19 18:00N 47°38' W 122°23'0 0.0
2018-Jul-19 17:30N 47°38' W 122°23'0 0.0
2018-Jul-19 17:00N 47°38' W 122°23'0 0.0
2018-Jul-19 16:30N 47°38' W 122°23'0 0.0
2018-Jul-19 16:00N 47°38' W 122°23'0 0.0
2018-Jul-19 15:30N 47°38' W 122°23'0 0.0
2018-Jul-19 15:00N 47°38' W 122°23'0 0.0
2018-Jul-19 14:30N 47°38' W 122°23'0 0.0
2018-Jul-19 13:30N 47°38' W 122°23'0 0.0
2018-Jul-19 13:00N 47°38' W 122°23'0 0.0
2018-Jul-19 12:30N 47°38' W 122°23'0 0.0
2018-Jul-19 12:00N 47°38' W 122°23'0 0.0
2018-Jul-19 11:30N 47°38' W 122°23'0 0.0
2018-Jul-19 11:00N 47°38' W 122°23'0 0.0
2018-Jul-19 10:30N 47°38' W 122°23'0 0.0
2018-Jul-19 10:00N 47°38' W 122°23'0 0.0
2018-Jul-19 09:30N 47°38' W 122°23'0 0.0
2018-Jul-19 09:00N 47°38' W 122°23'0 0.0
2018-Jul-19 08:30N 47°38' W 122°23'0 0.0
2018-Jul-19 08:00N 47°38' W 122°23'0 0.0
2018-Jul-19 07:30N 47°38' W 122°23'0 0.0
2018-Jul-19 07:00N 47°38' W 122°23'0 0.0
2018-Jul-19 06:30N 47°38' W 122°23'0 0.0
2018-Jul-19 06:00N 47°38' W 122°23'0 0.0
2018-Jul-19 05:30N 47°38' W 122°23'0 0.0
2018-Jul-19 05:00N 47°38' W 122°23'0 0.0
2018-Jul-19 04:30N 47°38' W 122°23'0 0.0
2018-Jul-19 04:00N 47°38' W 122°23'0 0.0
2018-Jul-19 03:30N 47°38' W 122°23'0 0.0
2018-Jul-19 03:00N 47°38' W 122°23'0 0.0
2018-Jul-19 02:30N 47°38' W 122°23'0 0.0
2018-Jul-19 02:00N 47°38' W 122°23'0 0.0
2018-Jul-19 01:30N 47°38' W 122°23'0 0.0
2018-Jul-19 01:00N 47°38' W 122°23'0 0.0
2018-Jul-19 00:30N 47°38' W 122°23'0 0.0
2018-Jul-19 00:00N 47°38' W 122°23'0 0.0
2018-Jul-18 23:30N 47°38' W 122°23'0 0.0
2018-Jul-18 23:00N 47°38' W 122°23'0 0.0
2018-Jul-18 22:30N 47°38' W 122°23'0 0.0
2018-Jul-18 22:00N 47°38' W 122°23'0 0.0
2018-Jul-18 21:30N 47°38' W 122°23'0 0.0
2018-Jul-18 21:00N 47°38' W 122°23'0 0.0
2018-Jul-18 20:30N 47°38' W 122°23'0 0.0
2018-Jul-18 20:00N 47°38' W 122°23'0 0.0
2018-Jul-18 19:30N 47°38' W 122°23'0 0.0
2018-Jul-18 19:00N 47°38' W 122°23'0 0.0
2018-Jul-18 18:30N 47°38' W 122°23'0 0.0
2018-Jul-18 18:00N 47°38' W 122°23'0 0.0
2018-Jul-18 17:30N 47°38' W 122°23'0 0.0
2018-Jul-18 17:00N 47°38' W 122°23'0 0.0
2018-Jul-18 16:30N 47°38' W 122°23'0 0.0
2018-Jul-18 16:00N 47°38' W 122°23'0 0.0
2018-Jul-18 15:30N 47°38' W 122°23'0 0.0
2018-Jul-18 15:00N 47°38' W 122°23'0 0.0
2018-Jul-18 14:30N 47°38' W 122°23'0 0.0
2018-Jul-18 13:30N 47°38' W 122°23'0 0.0
2018-Jul-18 13:00N 47°38' W 122°23'0 0.0
2018-Jul-18 12:30N 47°38' W 122°23'0 0.0
2018-Jul-18 12:00N 47°38' W 122°23'0 0.0
2018-Jul-18 11:30N 47°38' W 122°23'0 0.0
2018-Jul-18 10:30N 47°38' W 122°23'0 0.0
2018-Jul-18 10:00N 47°38' W 122°23'0 0.0
2018-Jul-18 09:30N 47°38' W 122°23'0 0.0
2018-Jul-18 09:00N 47°38' W 122°23'0 0.0
2018-Jul-18 08:30N 47°38' W 122°23'0 0.0
2018-Jul-18 08:00N 47°38' W 122°23'0 0.0
2018-Jul-18 07:30N 47°38' W 122°23'0 0.0
2018-Jul-18 07:00N 47°38' W 122°23'0 0.0
2018-Jul-18 06:30N 47°38' W 122°23'0 0.0
2018-Jul-18 06:00N 47°38' W 122°23'0 0.0
2018-Jul-18 05:30N 47°38' W 122°23'0 0.0
2018-Jul-18 05:00N 47°38' W 122°23'0 0.0
2018-Jul-18 04:30N 47°38' W 122°23'0 0.0
2018-Jul-18 04:00N 47°38' W 122°23'0 0.0
2018-Jul-18 03:30N 47°38' W 122°23'0 0.0
2018-Jul-18 03:00N 47°38' W 122°23'0 0.0
2018-Jul-18 02:30N 47°38' W 122°23'0 0.0
2018-Jul-18 01:54N 47°38' W 122°23'0 0.0
2018-Jul-18 01:30N 47°38' W 122°23'0 0.0
2018-Jul-18 01:00N 47°38' W 122°23'0 0.0
2018-Jul-18 00:30N 47°38' W 122°23'0 0.0
2018-Jul-18 00:00N 47°38' W 122°23'0 0.0
2018-Jul-17 23:30N 47°38' W 122°23'0 0.0
2018-Jul-17 23:00N 47°38' W 122°23'0 0.0
2018-Jul-17 22:27N 47°38' W 122°23'0 0.0
2018-Jul-17 22:00N 47°38' W 122°23'0 0.0
2018-Jul-17 21:30N 47°38' W 122°23'0 0.0
2018-Jul-17 21:00N 47°38' W 122°23'0 0.0
2018-Jul-17 20:30N 47°38' W 122°23'0 0.0
2018-Jul-17 20:00N 47°38' W 122°23'0 0.0
2018-Jul-17 19:30N 47°38' W 122°23'0 0.0
2018-Jul-17 19:00N 47°38' W 122°23'0 0.0
2018-Jul-17 18:30N 47°38' W 122°23'0 0.0
2018-Jul-17 18:00N 47°38' W 122°23'0 0.0
2018-Jul-17 17:30N 47°38' W 122°23'0 0.0
2018-Jul-17 16:57N 47°38' W 122°23'0 0.0
2018-Jul-17 16:30N 47°38' W 122°23'0 0.0
2018-Jul-17 16:00N 47°38' W 122°23'0 0.0
2018-Jul-17 15:30N 47°38' W 122°23'0 0.0
2018-Jul-17 15:00N 47°38' W 122°23'0 0.0
2018-Jul-17 14:30N 47°38' W 122°23'0 0.0
2018-Jul-17 14:00N 47°38' W 122°23'0 0.0
2018-Jul-17 13:30N 47°38' W 122°23'0 0.0
2018-Jul-17 13:00N 47°38' W 122°23'0 0.0
2018-Jul-17 12:30N 47°38' W 122°23'0 0.0
2018-Jul-17 12:00N 47°38' W 122°23'0 0.0
2018-Jul-17 11:30N 47°38' W 122°23'0 0.0
2018-Jul-17 11:00N 47°38' W 122°23'0 0.0
2018-Jul-17 10:30N 47°38' W 122°23'0 0.0
2018-Jul-17 10:00N 47°38' W 122°23'0 0.0
2018-Jul-17 09:30N 47°38' W 122°23'0 0.0
2018-Jul-17 09:00N 47°38' W 122°23'0 0.0
2018-Jul-17 08:30N 47°38' W 122°23'0 0.0
2018-Jul-17 08:00N 47°38' W 122°23'0 0.0
2018-Jul-17 07:30N 47°38' W 122°23'0 0.0
2018-Jul-17 07:00N 47°38' W 122°23'0 0.0
2018-Jul-17 06:30N 47°38' W 122°23'0 0.0
2018-Jul-17 06:00N 47°38' W 122°23'0 0.0
2018-Jul-17 05:30N 47°38' W 122°23'0 0.0
2018-Jul-17 05:00N 47°38' W 122°23'0 0.0
2018-Jul-17 04:30N 47°38' W 122°23'0 0.0
2018-Jul-17 03:57N 47°38' W 122°23'0 0.0
2018-Jul-17 03:30N 47°38' W 122°23'0 0.0
2018-Jul-17 03:00N 47°38' W 122°23'0 0.0
2018-Jul-17 02:30N 47°38' W 122°23'0 0.0
2018-Jul-17 02:00N 47°38' W 122°23'0 0.0
2018-Jul-17 01:30N 47°38' W 122°23'0 0.0
2018-Jul-17 01:00N 47°38' W 122°23'0 0.0
2018-Jul-17 00:27N 47°38' W 122°23'0 0.0
2018-Jul-16 23:30N 47°38' W 122°23'0 0.0
2018-Jul-16 23:00N 47°38' W 122°23'0 0.0
2018-Jul-16 22:30N 47°38' W 122°23'0 0.0
2018-Jul-16 22:00N 47°38' W 122°23'0 0.0
2018-Jul-16 21:30N 47°38' W 122°23'0 0.0
2018-Jul-16 21:00N 47°38' W 122°23'0 0.0
2018-Jul-16 20:30N 47°38' W 122°23'0 0.0
2018-Jul-16 20:00N 47°38' W 122°23'0 0.0
2018-Jul-16 19:30N 47°38' W 122°23'0 0.0
2018-Jul-16 19:00N 47°38' W 122°23'0 0.0
2018-Jul-16 18:30N 47°38' W 122°23'0 0.0
2018-Jul-16 18:00N 47°38' W 122°23'0 0.0
2018-Jul-16 17:30N 47°38' W 122°23'0 0.0
2018-Jul-16 17:00N 47°38' W 122°23'0 0.0
2018-Jul-16 16:30N 47°38' W 122°23'0 0.0
2018-Jul-16 16:00N 47°38' W 122°23'0 0.0
2018-Jul-16 15:30N 47°38' W 122°23'0 0.0
2018-Jul-16 15:00N 47°38' W 122°23'0 0.0
2018-Jul-16 14:30N 47°38' W 122°23'0 0.0
2018-Jul-16 14:00N 47°38' W 122°23'0 0.0
2018-Jul-16 13:30N 47°38' W 122°23'0 0.0
2018-Jul-16 13:00N 47°38' W 122°23'0 0.0
2018-Jul-16 12:30N 47°38' W 122°23'0 0.0
2018-Jul-16 12:00N 47°38' W 122°23'0 0.0
2018-Jul-16 11:30N 47°38' W 122°23'0 0.0
2018-Jul-16 11:00N 47°38' W 122°23'0 0.0
2018-Jul-16 10:30N 47°38' W 122°23'0 0.0
2018-Jul-16 10:00N 47°38' W 122°23'0 0.0
2018-Jul-16 09:30N 47°38' W 122°23'0 0.0
2018-Jul-16 09:00N 47°38' W 122°23'0 0.0
2018-Jul-16 08:30N 47°38' W 122°23'0 0.0
2018-Jul-16 07:57N 47°38' W 122°23'0 0.0
2018-Jul-16 07:30N 47°38' W 122°23'0 0.0
2018-Jul-16 07:00N 47°38' W 122°23'0 0.0
2018-Jul-16 06:30N 47°38' W 122°23'0 0.0
2018-Jul-16 06:00N 47°38' W 122°23'0 0.0
2018-Jul-16 05:30N 47°38' W 122°23'0 0.0
2018-Jul-16 04:57N 47°38' W 122°23'0 0.0
2018-Jul-16 04:30N 47°38' W 122°23'0 0.0
2018-Jul-16 04:00N 47°38' W 122°23'0 0.0
2018-Jul-16 03:30N 47°38' W 122°23'0 0.0
2018-Jul-16 03:00N 47°38' W 122°23'0 0.0
2018-Jul-16 02:30N 47°38' W 122°23'0 0.0
2018-Jul-16 02:00N 47°38' W 122°23'0 0.0
2018-Jul-15 19:51N 47°38' W 122°23'0 0.0
2018-Jul-15 19:30N 47°38' W 122°23'0 0.0
2018-Jul-15 19:00N 47°38' W 122°23'0 0.0
2018-Jul-15 18:30N 47°38' W 122°23'0 0.0
2018-Jul-15 18:00N 47°38' W 122°23'0 0.0
2018-Jul-15 17:30N 47°38' W 122°23'0 0.0
2018-Jul-15 17:00N 47°38' W 122°23'0 0.0
2018-Jul-15 16:30N 47°38' W 122°23'0 0.0
2018-Jul-15 15:57N 47°38' W 122°23'0 0.0
2018-Jul-15 15:30N 47°38' W 122°23'0 0.0
2018-Jul-15 15:00N 47°38' W 122°23'0 0.0
2018-Jul-15 14:24N 47°38' W 122°23'0 0.0
2018-Jul-15 14:00N 47°38' W 122°23'0 0.0
2018-Jul-15 13:30N 47°38' W 122°23'0 0.0
2018-Jul-15 13:00N 47°38' W 122°23'0 0.0
2018-Jul-15 12:30N 47°38' W 122°23'0 0.0
2018-Jul-15 12:00N 47°38' W 122°23'0 0.0
2018-Jul-15 11:30N 47°38' W 122°23'0 0.0
2018-Jul-15 11:00N 47°38' W 122°23'0 0.0
2018-Jul-15 10:30N 47°38' W 122°23'0 0.0
2018-Jul-15 10:00N 47°38' W 122°23'0 0.0
2018-Jul-15 09:30N 47°38' W 122°23'0 0.0
2018-Jul-15 09:00N 47°38' W 122°23'0 0.0
2018-Jul-15 08:30N 47°38' W 122°23'0 0.0
2018-Jul-15 08:00N 47°38' W 122°23'0 0.0
2018-Jul-15 07:30N 47°38' W 122°23'0 0.0
2018-Jul-15 07:00N 47°38' W 122°23'0 0.0
2018-Jul-15 06:27N 47°38' W 122°23'0 0.0
2018-Jul-15 05:57N 47°38' W 122°23'0 0.0
2018-Jul-15 01:18N 47°38' W 122°23'0 0.0
2018-Jul-15 00:48N 47°38' W 122°23'0 0.0
2018-Jul-15 00:27N 47°38' W 122°23'0 0.0
2018-Jul-15 00:00N 47°38' W 122°23'0 0.0
2018-Jul-14 23:21N 47°38' W 122°23'0 0.0
2018-Jul-14 23:00N 47°38' W 122°23'0 0.0
2018-Jul-14 22:30N 47°38' W 122°23'0 0.0
2018-Jul-14 22:00N 47°38' W 122°23'0 0.0
2018-Jul-14 21:30N 47°38' W 122°23'0 0.0
2018-Jul-14 21:00N 47°38' W 122°23'0 0.0
2018-Jul-14 20:30N 47°38' W 122°23'0 0.0
2018-Jul-14 20:00N 47°38' W 122°23'0 0.0
2018-Jul-14 19:30N 47°38' W 122°23'0 0.0
2018-Jul-14 19:00N 47°38' W 122°23'0 0.0
2018-Jul-14 18:29N 47°38' W 122°23'0 0.0
2018-Jul-14 17:56N 47°38' W 122°23'0 0.0
2018-Jul-14 17:24N 47°38' W 122°23'0 0.0
2018-Jul-14 17:00N 47°38' W 122°23'0 0.0
2018-Jul-14 16:30N 47°38' W 122°23'0 0.0
2018-Jul-14 16:00N 47°38' W 122°23'0 0.0
2018-Jul-14 15:21N 47°38' W 122°23'0 0.0
2018-Jul-14 14:59N 47°38' W 122°23'0 0.0
2018-Jul-14 14:30N 47°38' W 122°23'0 0.0
2018-Jul-14 13:27N 47°38' W 122°23'0 0.0
2018-Jul-14 13:00N 47°38' W 122°23'0 0.0
2018-Jul-14 12:24N 47°38' W 122°23'0 0.0
2018-Jul-14 12:00N 47°38' W 122°23'0 0.0
2018-Jul-14 11:29N 47°38' W 122°23'0 0.0
2018-Jul-14 10:59N 47°38' W 122°23'0 0.0
2018-Jul-14 10:30N 47°38' W 122°23'0 0.0
2018-Jul-14 10:00N 47°38' W 122°23'0 0.0
2018-Jul-14 09:30N 47°38' W 122°23'0 0.0
2018-Jul-14 08:59N 47°38' W 122°23'0 0.0
2018-Jul-14 08:29N 47°38' W 122°23'0 0.0
2018-Jul-14 07:57N 47°38' W 122°23'0 0.0
2018-Jul-14 07:29N 47°38' W 122°23'0 0.0
2018-Jul-14 07:00N 47°38' W 122°23'0 0.0
2018-Jul-14 06:29N 47°38' W 122°23'0 0.0
2018-Jul-14 06:00N 47°38' W 122°23'0 0.0
2018-Jul-14 05:29N 47°38' W 122°23'0 0.0
2018-Jul-14 04:56N 47°38' W 122°23'0 0.0
2018-Jul-14 04:26N 47°38' W 122°23'0 0.0
2018-Jul-14 04:00N 47°38' W 122°23'0 0.0
2018-Jul-14 03:30N 47°38' W 122°23'0 0.0
2018-Jul-14 02:59N 47°38' W 122°23'0 0.0
2018-Jul-14 02:29N 47°38' W 122°23'0 0.0
2018-Jul-14 01:59N 47°38' W 122°23'0 0.0
2018-Jul-14 01:29N 47°38' W 122°23'0 0.0
2018-Jul-14 00:59N 47°38' W 122°23'0 0.0
2018-Jul-14 00:29N 47°38' W 122°23'0 0.0
2018-Jul-13 23:59N 47°38' W 122°23'0 0.0
2018-Jul-13 23:29N 47°38' W 122°23'0 0.0
2018-Jul-13 22:59N 47°38' W 122°23'0 0.0
2018-Jul-13 22:30N 47°38' W 122°23'0 0.0
2018-Jul-13 21:59N 47°38' W 122°23'0 0.0
2018-Jul-13 20:17N 47°38' W 122°23'0 0.0
2018-Jul-13 19:59N 47°38' W 122°23'0 0.0
2018-Jul-13 19:29N 47°38' W 122°23'0 0.0
2018-Jul-13 18:56N 47°38' W 122°23'0 0.0
2018-Jul-13 18:29N 47°38' W 122°23'0 0.0
2018-Jul-13 17:56N 47°38' W 122°23'0 0.0
2018-Jul-13 17:30N 47°38' W 122°23'0 0.0
2018-Jul-13 16:59N 47°38' W 122°23'0 0.0
2018-Jul-13 16:29N 47°38' W 122°23'0 0.0
2018-Jul-13 15:59N 47°38' W 122°23'0 0.0
2018-Jul-13 15:29N 47°38' W 122°23'0 0.0
2018-Jul-13 14:59N 47°38' W 122°23'0 0.0
2018-Jul-13 14:29N 47°38' W 122°23'0 0.0
2018-Jul-13 13:29N 47°38' W 122°23'0 0.0
2018-Jul-13 12:59N 47°38' W 122°23'0 0.0
2018-Jul-13 12:29N 47°38' W 122°23'0 0.0
2018-Jul-13 11:59N 47°38' W 122°23'0 0.0
2018-Jul-13 11:29N 47°38' W 122°23'0 0.0
2018-Jul-13 10:53N 47°38' W 122°23'0 0.0
2018-Jul-13 10:29N 47°38' W 122°23'0 0.0
2018-Jul-13 09:59N 47°38' W 122°23'0 0.0
2018-Jul-13 09:29N 47°38' W 122°23'0 0.0
2018-Jul-13 08:59N 47°38' W 122°23'0 0.0
2018-Jul-13 08:29N 47°38' W 122°23'0 0.0
2018-Jul-13 07:59N 47°38' W 122°23'0 0.0
2018-Jul-13 07:29N 47°38' W 122°23'0 0.0
2018-Jul-13 06:59N 47°38' W 122°23'0 0.0
2018-Jul-13 06:29N 47°38' W 122°23'0 0.0
2018-Jul-13 05:59N 47°38' W 122°23'0 0.0
2018-Jul-13 05:29N 47°38' W 122°23'0 0.0
2018-Jul-13 04:59N 47°38' W 122°23'0 0.0
2018-Jul-13 04:29N 47°38' W 122°23'0 0.0
2018-Jul-13 03:59N 47°38' W 122°23'0 0.0
2018-Jul-13 03:29N 47°38' W 122°23'0 0.0
2018-Jul-13 02:59N 47°38' W 122°23'0 0.0
2018-Jul-13 02:29N 47°38' W 122°23'0 0.0
2018-Jul-13 01:59N 47°38' W 122°23'0 0.0
2018-Jul-13 01:29N 47°38' W 122°23'0 0.0
2018-Jul-13 00:59N 47°38' W 122°23'0 0.0
2018-Jul-13 00:29N 47°38' W 122°23'0 0.0
2018-Jul-12 23:59N 47°38' W 122°23'0 0.0
2018-Jul-12 23:29N 47°38' W 122°23'0 0.0
2018-Jul-12 22:59N 47°38' W 122°23'0 0.0
2018-Jul-12 22:29N 47°38' W 122°23'0 0.0
2018-Jul-12 21:59N 47°38' W 122°23'0 0.0
2018-Jul-12 21:29N 47°38' W 122°23'0 0.0
2018-Jul-12 20:59N 47°38' W 122°23'0 0.0
2018-Jul-12 20:29N 47°38' W 122°23'0 0.0
2018-Jul-12 19:59N 47°38' W 122°23'0 0.0
2018-Jul-12 19:29N 47°38' W 122°23'0 0.0
2018-Jul-12 18:59N 47°38' W 122°23'0 0.0
2018-Jul-12 18:29N 47°38' W 122°23'0 0.0
2018-Jul-12 17:59N 47°38' W 122°23'0 0.0
2018-Jul-12 17:29N 47°38' W 122°23'0 0.0
2018-Jul-12 16:59N 47°38' W 122°23'0 0.0
2018-Jul-12 16:29N 47°38' W 122°23'0 0.0
2018-Jul-12 15:59N 47°38' W 122°23'0 0.0
2018-Jul-12 15:29N 47°38' W 122°23'0 0.0
2018-Jul-12 14:59N 47°38' W 122°23'0 0.0
2018-Jul-12 14:29N 47°38' W 122°23'0 0.0
2018-Jul-12 13:59N 47°38' W 122°23'0 0.0
2018-Jul-12 13:29N 47°38' W 122°23'0 0.0
2018-Jul-12 12:59N 47°38' W 122°23'0 0.0
2018-Jul-12 12:29N 47°38' W 122°23'0 0.0
2018-Jul-12 11:59N 47°38' W 122°23'0 0.0
2018-Jul-12 11:29N 47°38' W 122°23'0 0.0
2018-Jul-12 10:59N 47°38' W 122°23'0 0.0
2018-Jul-12 10:29N 47°38' W 122°23'0 0.0
2018-Jul-12 09:59N 47°38' W 122°23'0 0.0
2018-Jul-12 09:29N 47°38' W 122°23'0 0.0
2018-Jul-12 08:59N 47°38' W 122°23'0 0.0
2018-Jul-12 08:29N 47°38' W 122°23'0 0.0
2018-Jul-12 07:59N 47°38' W 122°23'0 0.0
2018-Jul-12 07:29N 47°38' W 122°23'0 0.0
2018-Jul-12 06:59N 47°38' W 122°23'0 0.0
2018-Jul-12 06:29N 47°38' W 122°23'0 0.0
2018-Jul-12 05:59N 47°38' W 122°23'0 0.0
2018-Jul-12 05:29N 47°38' W 122°23'0 0.0
2018-Jul-12 04:59N 47°38' W 122°23'0 0.0
2018-Jul-12 04:29N 47°38' W 122°23'0 0.0
2018-Jul-12 03:59N 47°38' W 122°23'0 0.0
2018-Jul-12 03:29N 47°38' W 122°23'0 0.0
2018-Jul-12 02:59N 47°38' W 122°23'0 0.0
2018-Jul-12 02:29N 47°38' W 122°23'0 0.0
2018-Jul-12 01:59N 47°38' W 122°23'0 0.0
2018-Jul-12 01:29N 47°38' W 122°23'0 0.0
2018-Jul-12 00:59N 47°38' W 122°23'0 0.0
2018-Jul-12 00:29N 47°38' W 122°23'0 0.0
2018-Jul-11 23:59N 47°38' W 122°23'0 0.0
2018-Jul-11 23:29N 47°38' W 122°23'0 0.0
2018-Jul-11 22:59N 47°38' W 122°23'0 0.0
2018-Jul-11 22:29N 47°38' W 122°23'0 0.0
2018-Jul-11 21:59N 47°38' W 122°23'0 0.0
2018-Jul-11 21:29N 47°38' W 122°23'0 0.0
2018-Jul-11 20:59N 47°38' W 122°23'0 0.0
2018-Jul-11 20:29N 47°38' W 122°23'0 0.0
2018-Jul-11 19:59N 47°38' W 122°23'0 0.0
2018-Jul-11 19:29N 47°38' W 122°23'0 0.0
2018-Jul-11 18:59N 47°38' W 122°23'0 0.0
2018-Jul-11 18:29N 47°38' W 122°23'0 0.0
2018-Jul-11 17:59N 47°38' W 122°23'0 0.0
2018-Jul-11 17:29N 47°38' W 122°23'0 0.0
2018-Jul-11 16:59N 47°38' W 122°23'0 0.0
2018-Jul-11 16:29N 47°38' W 122°23'0 0.0
2018-Jul-11 15:59N 47°38' W 122°23'0 0.0
2018-Jul-11 15:29N 47°38' W 122°23'0 0.0
2018-Jul-11 14:59N 47°38' W 122°23'0 0.0
2018-Jul-11 14:29N 47°38' W 122°23'0 0.0
2018-Jul-11 13:59N 47°38' W 122°23'0 0.0
2018-Jul-11 13:29N 47°38' W 122°23'0 0.0
2018-Jul-11 12:59N 47°38' W 122°23'0 0.0
2018-Jul-11 12:29N 47°38' W 122°23'0 0.0
2018-Jul-11 11:59N 47°38' W 122°23'0 0.0
2018-Jul-11 11:29N 47°38' W 122°23'0 0.0
2018-Jul-11 10:59N 47°38' W 122°23'0 0.0
2018-Jul-11 10:29N 47°38' W 122°23'0 0.0
2018-Jul-11 09:59N 47°38' W 122°23'0 0.0
2018-Jul-11 09:29N 47°38' W 122°23'0 0.0
2018-Jul-11 08:59N 47°38' W 122°23'0 0.0
2018-Jul-11 08:29N 47°38' W 122°23'0 0.0
2018-Jul-11 07:59N 47°38' W 122°23'0 0.0
2018-Jul-11 07:29N 47°38' W 122°23'0 0.0
2018-Jul-11 06:59N 47°38' W 122°23'0 0.0
2018-Jul-11 06:29N 47°38' W 122°23'0 0.0
2018-Jul-11 05:59N 47°38' W 122°23'0 0.0
2018-Jul-11 05:29N 47°38' W 122°23'0 0.0
2018-Jul-11 04:59N 47°38' W 122°23'0 0.0
2018-Jul-11 04:29N 47°38' W 122°23'0 0.0
2018-Jul-11 03:59N 47°38' W 122°23'0 0.0
2018-Jul-11 03:29N 47°38' W 122°23'0 0.0
2018-Jul-11 02:59N 47°38' W 122°23'0 0.0
2018-Jul-11 02:29N 47°38' W 122°23'0 0.0
2018-Jul-11 01:59N 47°38' W 122°23'0 0.0
2018-Jul-11 01:29N 47°38' W 122°23'0 0.0
2018-Jul-11 00:59N 47°38' W 122°23'0 0.0
2018-Jul-11 00:29N 47°38' W 122°23'0 0.0
2018-Jul-10 23:59N 47°38' W 122°23'0 0.0
2018-Jul-10 23:29N 47°38' W 122°23'0 0.0
2018-Jul-10 22:59N 47°38' W 122°23'0 0.0
2018-Jul-10 22:29N 47°38' W 122°23'0 0.0
2018-Jul-10 21:59N 47°38' W 122°23'0 0.0
2018-Jul-10 21:29N 47°38' W 122°23'0 0.0
2018-Jul-10 20:59N 47°38' W 122°23'0 0.0
2018-Jul-10 20:29N 47°38' W 122°23'0 0.0
2018-Jul-10 19:59N 47°38' W 122°23'0 0.0
2018-Jul-10 19:29N 47°38' W 122°23'0 0.0
2018-Jul-10 18:59N 47°38' W 122°23'0 0.0
2018-Jul-10 18:29N 47°38' W 122°23'0 0.0
2018-Jul-10 17:59N 47°38' W 122°23'0 0.0
2018-Jul-10 17:29N 47°38' W 122°23'0 0.0
2018-Jul-10 16:59N 47°38' W 122°23'  
Track history (hours):
 
Tides and Currents Weather Stations Pressure Air Temp Water Temp Dewpoint Dewpoint Depression Visibility Wind Speed Wind Dir Waves Ship Positions

Shana

Owner: Kaiser, John M, Seattle, WA. More information available from US FCC via Universal Licensing System and Coast Guard Vessel Documentation Center.

Last reported at 2018-Jul-20 16:31 UTC. Time now 2018-Jul-20 16:41 UTC.
Position N 47°38' W 122°23'.

Length 32 m; draft 3 m.

MMSI: 367599860.

Date/timePositionNaut miles runAvg speedWind from/ knotsBaromVisibWave heightAir tempDewpointWater temp
2018-Jul-20 16:31N 47°38' W 122°23'0 0.0
2018-Jul-20 16:01N 47°38' W 122°23'0 0.0
2018-Jul-20 15:31N 47°38' W 122°23'0 0.0
2018-Jul-20 15:01N 47°38' W 122°23'0 0.0
2018-Jul-20 14:30N 47°38' W 122°23'0 0.0
2018-Jul-20 14:00N 47°38' W 122°23'0 0.0
2018-Jul-20 13:31N 47°38' W 122°23'0 0.0
2018-Jul-20 13:00N 47°38' W 122°23'0 0.0
2018-Jul-20 12:31N 47°38' W 122°23'0 0.0
2018-Jul-20 12:01N 47°38' W 122°23'0 0.0
2018-Jul-20 11:30N 47°38' W 122°23'0 0.0
2018-Jul-20 11:00N 47°38' W 122°23'0 0.0
2018-Jul-20 10:30N 47°38' W 122°23'0 0.0
2018-Jul-20 10:01N 47°38' W 122°23'0 0.0
2018-Jul-20 09:30N 47°38' W 122°23'0 0.0
2018-Jul-20 09:01N 47°38' W 122°23'0 0.0
2018-Jul-20 08:31N 47°38' W 122°23'0 0.0
2018-Jul-20 08:01N 47°38' W 122°23'0 0.0
2018-Jul-20 07:30N 47°38' W 122°23'0 0.0
2018-Jul-20 07:01N 47°38' W 122°23'0 0.0
2018-Jul-20 06:31N 47°38' W 122°23'0 0.0
2018-Jul-20 06:00N 47°38' W 122°23'0 0.0
2018-Jul-20 05:29N 47°38' W 122°23'0 0.0
2018-Jul-20 05:00N 47°38' W 122°23'0 0.0
2018-Jul-20 04:30N 47°38' W 122°23'0 0.0
2018-Jul-20 03:59N 47°38' W 122°23'0 0.0
2018-Jul-20 03:27N 47°38' W 122°23'0 0.0
2018-Jul-20 03:01N 47°38' W 122°23'0 0.0
2018-Jul-20 02:30N 47°38' W 122°23'0 0.0
2018-Jul-20 02:00N 47°38' W 122°23'0 0.0
2018-Jul-20 01:30N 47°38' W 122°23'0 0.0
2018-Jul-20 01:00N 47°38' W 122°23'0 0.0
2018-Jul-20 00:30N 47°38' W 122°23'0 0.0
2018-Jul-20 00:00N 47°38' W 122°23'0 0.0
2018-Jul-19 23:29N 47°38' W 122°23'0 0.8
2018-Jul-19 23:00N 47°37' W 122°23'4 8.4
2018-Jul-19 22:31N 47°34' W 122°27'4 8.1
2018-Jul-19 22:00N 47°30' W 122°27'4 8.2
2018-Jul-19 21:31N 47°26' W 122°24'0 0.2
2018-Jul-19 21:00N 47°26' W 122°24'510.6
2018-Jul-19 20:30N 47°31' W 122°27'2 4.9
2018-Jul-19 20:01N 47°34' W 122°28'4 7.2
2018-Jul-19 19:31N 47°37' W 122°27'2 4.6
2018-Jul-19 18:59N 47°38' W 122°23'0 0.0
2018-Jul-19 18:30N 47°38' W 122°23'0 0.0
2018-Jul-19 18:00N 47°38' W 122°23'0 0.0
2018-Jul-19 17:30N 47°38' W 122°23'0 0.0
2018-Jul-19 17:00N 47°38' W 122°23'0 0.0
2018-Jul-19 16:30N 47°38' W 122°23'0 0.0
2018-Jul-19 16:00N 47°38' W 122°23'0 0.0
2018-Jul-19 15:30N 47°38' W 122°23'0 0.0
2018-Jul-19 15:00N 47°38' W 122°23'0 0.0
2018-Jul-19 14:30N 47°38' W 122°23'0 0.0
2018-Jul-19 13:30N 47°38' W 122°23'0 0.0
2018-Jul-19 13:00N 47°38' W 122°23'0 0.0
2018-Jul-19 12:30N 47°38' W 122°23'0 0.0
2018-Jul-19 12:00N 47°38' W 122°23'0 0.0
2018-Jul-19 11:30N 47°38' W 122°23'0 0.0
2018-Jul-19 11:00N 47°38' W 122°23'0 0.0
2018-Jul-19 10:30N 47°38' W 122°23'0 0.0
2018-Jul-19 10:00N 47°38' W 122°23'0 0.0
2018-Jul-19 09:30N 47°38' W 122°23'0 0.0
2018-Jul-19 09:00N 47°38' W 122°23'0 0.0
2018-Jul-19 08:30N 47°38' W 122°23'0 0.0
2018-Jul-19 08:00N 47°38' W 122°23'0 0.0
2018-Jul-19 07:30N 47°38' W 122°23'0 0.0
2018-Jul-19 07:00N 47°38' W 122°23'0 0.0
2018-Jul-19 06:30N 47°38' W 122°23'0 0.0
2018-Jul-19 06:00N 47°38' W 122°23'0 0.0
2018-Jul-19 05:30N 47°38' W 122°23'0 0.0
2018-Jul-19 05:00N 47°38' W 122°23'0 0.0
2018-Jul-19 04:30N 47°38' W 122°23'0 0.0
2018-Jul-19 04:00N 47°38' W 122°23'0 0.0
2018-Jul-19 03:30N 47°38' W 122°23'0 0.0
2018-Jul-19 03:00N 47°38' W 122°23'0 0.0
2018-Jul-19 02:30N 47°38' W 122°23'0 0.0
2018-Jul-19 02:00N 47°38' W 122°23'0 0.0
2018-Jul-19 01:30N 47°38' W 122°23'0 0.0
2018-Jul-19 01:00N 47°38' W 122°23'0 0.0
2018-Jul-19 00:30N 47°38' W 122°23'0 0.0
2018-Jul-19 00:00N 47°38' W 122°23'0 0.0
2018-Jul-18 23:30N 47°38' W 122°23'0 0.0
2018-Jul-18 23:00N 47°38' W 122°23'0 0.0
2018-Jul-18 22:30N 47°38' W 122°23'0 0.0
2018-Jul-18 22:00N 47°38' W 122°23'0 0.0
2018-Jul-18 21:30N 47°38' W 122°23'0 0.0
2018-Jul-18 21:00N 47°38' W 122°23'0 0.0
2018-Jul-18 20:30N 47°38' W 122°23'0 0.0
2018-Jul-18 20:00N 47°38' W 122°23'0 0.0
2018-Jul-18 19:30N 47°38' W 122°23'0 0.0
2018-Jul-18 19:00N 47°38' W 122°23'0 0.0
2018-Jul-18 18:30N 47°38' W 122°23'0 0.0
2018-Jul-18 18:00N 47°38' W 122°23'0 0.0
2018-Jul-18 17:30N 47°38' W 122°23'0 0.0
2018-Jul-18 17:00N 47°38' W 122°23'0 0.0
2018-Jul-18 16:30N 47°38' W 122°23'0 0.0
2018-Jul-18 16:00N 47°38' W 122°23'0 0.0
2018-Jul-18 15:30N 47°38' W 122°23'0 0.0
2018-Jul-18 15:00N 47°38' W 122°23'0 0.0
2018-Jul-18 14:30N 47°38' W 122°23'0 0.0
2018-Jul-18 13:30N 47°38' W 122°23'0 0.0
2018-Jul-18 13:00N 47°38' W 122°23'0 0.0
2018-Jul-18 12:30N 47°38' W 122°23'0 0.0
2018-Jul-18 12:00N 47°38' W 122°23'0 0.0
2018-Jul-18 11:30N 47°38' W 122°23'0 0.0
2018-Jul-18 10:30N 47°38' W 122°23'0 0.0
2018-Jul-18 10:00N 47°38' W 122°23'0 0.0
2018-Jul-18 09:30N 47°38' W 122°23'0 0.0
2018-Jul-18 09:00N 47°38' W 122°23'0 0.0
2018-Jul-18 08:30N 47°38' W 122°23'0 0.0
2018-Jul-18 08:00N 47°38' W 122°23'0 0.0
2018-Jul-18 07:30N 47°38' W 122°23'0 0.0
2018-Jul-18 07:00N 47°38' W 122°23'0 0.0
2018-Jul-18 06:30N 47°38' W 122°23'0 0.0
2018-Jul-18 06:00N 47°38' W 122°23'0 0.0
2018-Jul-18 05:30N 47°38' W 122°23'0 0.0
2018-Jul-18 05:00N 47°38' W 122°23'0 0.0
2018-Jul-18 04:30N 47°38' W 122°23'0 0.0
2018-Jul-18 04:00N 47°38' W 122°23'0 0.0
2018-Jul-18 03:30N 47°38' W 122°23'0 0.0
2018-Jul-18 03:00N 47°38' W 122°23'0 0.0
2018-Jul-18 02:30N 47°38' W 122°23'0 0.0
2018-Jul-18 01:54N 47°38' W 122°23'0 0.0
2018-Jul-18 01:30N 47°38' W 122°23'0 0.0
2018-Jul-18 01:00N 47°38' W 122°23'0 0.0
2018-Jul-18 00:30N 47°38' W 122°23'0 0.0
2018-Jul-18 00:00N 47°38' W 122°23'0 0.0
2018-Jul-17 23:30N 47°38' W 122°23'0 0.0
2018-Jul-17 23:00N 47°38' W 122°23'0 0.0
2018-Jul-17 22:27N 47°38' W 122°23'0 0.0
2018-Jul-17 22:00N 47°38' W 122°23'0 0.0
2018-Jul-17 21:30N 47°38' W 122°23'0 0.0
2018-Jul-17 21:00N 47°38' W 122°23'0 0.0
2018-Jul-17 20:30N 47°38' W 122°23'0 0.0
2018-Jul-17 20:00N 47°38' W 122°23'0 0.0
2018-Jul-17 19:30N 47°38' W 122°23'0 0.0
2018-Jul-17 19:00N 47°38' W 122°23'0 0.0
2018-Jul-17 18:30N 47°38' W 122°23'0 0.0
2018-Jul-17 18:00N 47°38' W 122°23'0 0.0
2018-Jul-17 17:30N 47°38' W 122°23'0 0.0
2018-Jul-17 16:57N 47°38' W 122°23'0 0.0
2018-Jul-17 16:30N 47°38' W 122°23'0 0.0
2018-Jul-17 16:00N 47°38' W 122°23'0 0.0
2018-Jul-17 15:30N 47°38' W 122°23'0 0.0
2018-Jul-17 15:00N 47°38' W 122°23'0 0.0
2018-Jul-17 14:30N 47°38' W 122°23'0 0.0
2018-Jul-17 14:00N 47°38' W 122°23'0 0.0
2018-Jul-17 13:30N 47°38' W 122°23'0 0.0
2018-Jul-17 13:00N 47°38' W 122°23'0 0.0
2018-Jul-17 12:30N 47°38' W 122°23'0 0.0
2018-Jul-17 12:00N 47°38' W 122°23'0 0.0
2018-Jul-17 11:30N 47°38' W 122°23'0 0.0
2018-Jul-17 11:00N 47°38' W 122°23'0 0.0
2018-Jul-17 10:30N 47°38' W 122°23'0 0.0
2018-Jul-17 10:00N 47°38' W 122°23'0 0.0
2018-Jul-17 09:30N 47°38' W 122°23'0 0.0
2018-Jul-17 09:00N 47°38' W 122°23'0 0.0
2018-Jul-17 08:30N 47°38' W 122°23'0 0.0
2018-Jul-17 08:00N 47°38' W 122°23'0 0.0
2018-Jul-17 07:30N 47°38' W 122°23'0 0.0
2018-Jul-17 07:00N 47°38' W 122°23'0 0.0
2018-Jul-17 06:30N 47°38' W 122°23'0 0.0
2018-Jul-17 06:00N 47°38' W 122°23'0 0.0
2018-Jul-17 05:30N 47°38' W 122°23'0 0.0
2018-Jul-17 05:00N 47°38' W 122°23'0 0.0
2018-Jul-17 04:30N 47°38' W 122°23'0 0.0
2018-Jul-17 03:57N 47°38' W 122°23'0 0.0
2018-Jul-17 03:30N 47°38' W 122°23'0 0.0
2018-Jul-17 03:00N 47°38' W 122°23'0 0.0
2018-Jul-17 02:30N 47°38' W 122°23'0 0.0
2018-Jul-17 02:00N 47°38' W 122°23'0 0.0
2018-Jul-17 01:30N 47°38' W 122°23'0 0.0
2018-Jul-17 01:00N 47°38' W 122°23'0 0.0
2018-Jul-17 00:27N 47°38' W 122°23'0 0.0
2018-Jul-16 23:30N 47°38' W 122°23'0 0.0
2018-Jul-16 23:00N 47°38' W 122°23'0 0.0
2018-Jul-16 22:30N 47°38' W 122°23'0 0.0
2018-Jul-16 22:00N 47°38' W 122°23'0 0.0
2018-Jul-16 21:30N 47°38' W 122°23'0 0.0
2018-Jul-16 21:00N 47°38' W 122°23'0 0.0
2018-Jul-16 20:30N 47°38' W 122°23'0 0.0
2018-Jul-16 20:00N 47°38' W 122°23'0 0.0
2018-Jul-16 19:30N 47°38' W 122°23'0 0.0
2018-Jul-16 19:00N 47°38' W 122°23'0 0.0
2018-Jul-16 18:30N 47°38' W 122°23'0 0.0
2018-Jul-16 18:00N 47°38' W 122°23'0 0.0
2018-Jul-16 17:30N 47°38' W 122°23'0 0.0
2018-Jul-16 17:00N 47°38' W 122°23'0 0.0
2018-Jul-16 16:30N 47°38' W 122°23'0 0.0
2018-Jul-16 16:00N 47°38' W 122°23'0 0.0
2018-Jul-16 15:30N 47°38' W 122°23'0 0.0
2018-Jul-16 15:00N 47°38' W 122°23'0 0.0
2018-Jul-16 14:30N 47°38' W 122°23'0 0.0
2018-Jul-16 14:00N 47°38' W 122°23'0 0.0
2018-Jul-16 13:30N 47°38' W 122°23'0 0.0
2018-Jul-16 13:00N 47°38' W 122°23'0 0.0
2018-Jul-16 12:30N 47°38' W 122°23'0 0.0
2018-Jul-16 12:00N 47°38' W 122°23'0 0.0
2018-Jul-16 11:30N 47°38' W 122°23'0 0.0
2018-Jul-16 11:00N 47°38' W 122°23'0 0.0
2018-Jul-16 10:30N 47°38' W 122°23'0 0.0
2018-Jul-16 10:00N 47°38' W 122°23'0 0.0
2018-Jul-16 09:30N 47°38' W 122°23'0 0.0
2018-Jul-16 09:00N 47°38' W 122°23'0 0.0
2018-Jul-16 08:30N 47°38' W 122°23'0 0.0
2018-Jul-16 07:57N 47°38' W 122°23'0 0.0
2018-Jul-16 07:30N 47°38' W 122°23'0 0.0
2018-Jul-16 07:00N 47°38' W 122°23'0 0.0
2018-Jul-16 06:30N 47°38' W 122°23'0 0.0
2018-Jul-16 06:00N 47°38' W 122°23'0 0.0
2018-Jul-16 05:30N 47°38' W 122°23'0 0.0
2018-Jul-16 04:57N 47°38' W 122°23'0 0.0
2018-Jul-16 04:30N 47°38' W 122°23'0 0.0
2018-Jul-16 04:00N 47°38' W 122°23'0 0.0
2018-Jul-16 03:30N 47°38' W 122°23'0 0.0
2018-Jul-16 03:00N 47°38' W 122°23'0 0.0
2018-Jul-16 02:30N 47°38' W 122°23'0 0.0
2018-Jul-16 02:00N 47°38' W 122°23'0 0.0
2018-Jul-15 19:51N 47°38' W 122°23'0 0.0
2018-Jul-15 19:30N 47°38' W 122°23'0 0.0
2018-Jul-15 19:00N 47°38' W 122°23'0 0.0
2018-Jul-15 18:30N 47°38' W 122°23'0 0.0
2018-Jul-15 18:00N 47°38' W 122°23'0 0.0
2018-Jul-15 17:30N 47°38' W 122°23'0 0.0
2018-Jul-15 17:00N 47°38' W 122°23'0 0.0
2018-Jul-15 16:30N 47°38' W 122°23'0 0.0
2018-Jul-15 15:57N 47°38' W 122°23'0 0.0
2018-Jul-15 15:30N 47°38' W 122°23'0 0.0
2018-Jul-15 15:00N 47°38' W 122°23'0 0.0
2018-Jul-15 14:24N 47°38' W 122°23'0 0.0
2018-Jul-15 14:00N 47°38' W 122°23'0 0.0
2018-Jul-15 13:30N 47°38' W 122°23'0 0.0
2018-Jul-15 13:00N 47°38' W 122°23'0 0.0
2018-Jul-15 12:30N 47°38' W 122°23'0 0.0
2018-Jul-15 12:00N 47°38' W 122°23'0 0.0
2018-Jul-15 11:30N 47°38' W 122°23'0 0.0
2018-Jul-15 11:00N 47°38' W 122°23'0 0.0
2018-Jul-15 10:30N 47°38' W 122°23'0 0.0
2018-Jul-15 10:00N 47°38' W 122°23'0 0.0
2018-Jul-15 09:30N 47°38' W 122°23'0 0.0
2018-Jul-15 09:00N 47°38' W 122°23'0 0.0
2018-Jul-15 08:30N 47°38' W 122°23'0 0.0
2018-Jul-15 08:00N 47°38' W 122°23'0 0.0
2018-Jul-15 07:30N 47°38' W 122°23'0 0.0
2018-Jul-15 07:00N 47°38' W 122°23'0 0.0
2018-Jul-15 06:27N 47°38' W 122°23'0 0.0
2018-Jul-15 05:57N 47°38' W 122°23'0 0.0
2018-Jul-15 01:18N 47°38' W 122°23'0 0.0
2018-Jul-15 00:48N 47°38' W 122°23'0 0.0
2018-Jul-15 00:27N 47°38' W 122°23'0 0.0
2018-Jul-15 00:00N 47°38' W 122°23'0 0.0
2018-Jul-14 23:21N 47°38' W 122°23'0 0.0
2018-Jul-14 23:00N 47°38' W 122°23'0 0.0
2018-Jul-14 22:30N 47°38' W 122°23'0 0.0
2018-Jul-14 22:00N 47°38' W 122°23'0 0.0
2018-Jul-14 21:30N 47°38' W 122°23'0 0.0
2018-Jul-14 21:00N 47°38' W 122°23'0 0.0
2018-Jul-14 20:30N 47°38' W 122°23'0 0.0
2018-Jul-14 20:00N 47°38' W 122°23'0 0.0
2018-Jul-14 19:30N 47°38' W 122°23'0 0.0
2018-Jul-14 19:00N 47°38' W 122°23'0 0.0
2018-Jul-14 18:29N 47°38' W 122°23'0 0.0
2018-Jul-14 17:56N 47°38' W 122°23'0 0.0
2018-Jul-14 17:24N 47°38' W 122°23'0 0.0
2018-Jul-14 17:00N 47°38' W 122°23'0 0.0
2018-Jul-14 16:30N 47°38' W 122°23'0 0.0
2018-Jul-14 16:00N 47°38' W 122°23'0 0.0
2018-Jul-14 15:21N 47°38' W 122°23'0 0.0
2018-Jul-14 14:59N 47°38' W 122°23'0 0.0
2018-Jul-14 14:30N 47°38' W 122°23'0 0.0
2018-Jul-14 13:27N 47°38' W 122°23'0 0.0
2018-Jul-14 13:00N 47°38' W 122°23'0 0.0
2018-Jul-14 12:24N 47°38' W 122°23'0 0.0
2018-Jul-14 12:00N 47°38' W 122°23'0 0.0
2018-Jul-14 11:29N 47°38' W 122°23'0 0.0
2018-Jul-14 10:59N 47°38' W 122°23'0 0.0
2018-Jul-14 10:30N 47°38' W 122°23'0 0.0
2018-Jul-14 10:00N 47°38' W 122°23'0 0.0
2018-Jul-14 09:30N 47°38' W 122°23'0 0.0
2018-Jul-14 08:59N 47°38' W 122°23'0 0.0
2018-Jul-14 08:29N 47°38' W 122°23'0 0.0
2018-Jul-14 07:57N 47°38' W 122°23'0 0.0
2018-Jul-14 07:29N 47°38' W 122°23'0 0.0
2018-Jul-14 07:00N 47°38' W 122°23'0 0.0
2018-Jul-14 06:29N 47°38' W 122°23'0 0.0
2018-Jul-14 06:00N 47°38' W 122°23'0 0.0
2018-Jul-14 05:29N 47°38' W 122°23'0 0.0
2018-Jul-14 04:56N 47°38' W 122°23'0 0.0
2018-Jul-14 04:26N 47°38' W 122°23'0 0.0
2018-Jul-14 04:00N 47°38' W 122°23'0 0.0
2018-Jul-14 03:30N 47°38' W 122°23'0 0.0
2018-Jul-14 02:59N 47°38' W 122°23'0 0.0
2018-Jul-14 02:29N 47°38' W 122°23'0 0.0
2018-Jul-14 01:59N 47°38' W 122°23'0 0.0
2018-Jul-14 01:29N 47°38' W 122°23'0 0.0
2018-Jul-14 00:59N 47°38' W 122°23'0 0.0
2018-Jul-14 00:29N 47°38' W 122°23'0 0.0
2018-Jul-13 23:59N 47°38' W 122°23'0 0.0
2018-Jul-13 23:29N 47°38' W 122°23'0 0.0
2018-Jul-13 22:59N 47°38' W 122°23'0 0.0
2018-Jul-13 22:30N 47°38' W 122°23'0 0.0
2018-Jul-13 21:59N 47°38' W 122°23'0 0.0
2018-Jul-13 20:17N 47°38' W 122°23'0 0.0
2018-Jul-13 19:59N 47°38' W 122°23'0 0.0
2018-Jul-13 19:29N 47°38' W 122°23'0 0.0
2018-Jul-13 18:56N 47°38' W 122°23'0 0.0
2018-Jul-13 18:29N 47°38' W 122°23'0 0.0
2018-Jul-13 17:56N 47°38' W 122°23'0 0.0
2018-Jul-13 17:30N 47°38' W 122°23'0 0.0
2018-Jul-13 16:59N 47°38' W 122°23'0 0.0
2018-Jul-13 16:29N 47°38' W 122°23'0 0.0
2018-Jul-13 15:59N 47°38' W 122°23'0 0.0
2018-Jul-13 15:29N 47°38' W 122°23'0 0.0
2018-Jul-13 14:59N 47°38' W 122°23'0 0.0
2018-Jul-13 14:29N 47°38' W 122°23'0 0.0
2018-Jul-13 13:29N 47°38' W 122°23'0 0.0
2018-Jul-13 12:59N 47°38' W 122°23'0 0.0
2018-Jul-13 12:29N 47°38' W 122°23'0 0.0
2018-Jul-13 11:59N 47°38' W 122°23'0 0.0
2018-Jul-13 11:29N 47°38' W 122°23'0 0.0
2018-Jul-13 10:53N 47°38' W 122°23'0 0.0
2018-Jul-13 10:29N 47°38' W 122°23'0 0.0
2018-Jul-13 09:59N 47°38' W 122°23'0 0.0
2018-Jul-13 09:29N 47°38' W 122°23'0 0.0
2018-Jul-13 08:59N 47°38' W 122°23'0 0.0
2018-Jul-13 08:29N 47°38' W 122°23'0 0.0
2018-Jul-13 07:59N 47°38' W 122°23'0 0.0
2018-Jul-13 07:29N 47°38' W 122°23'0 0.0
2018-Jul-13 06:59N 47°38' W 122°23'0 0.0
2018-Jul-13 06:29N 47°38' W 122°23'0 0.0
2018-Jul-13 05:59N 47°38' W 122°23'0 0.0
2018-Jul-13 05:29N 47°38' W 122°23'0 0.0
2018-Jul-13 04:59N 47°38' W 122°23'0 0.0
2018-Jul-13 04:29N 47°38' W 122°23'0 0.0
2018-Jul-13 03:59N 47°38' W 122°23'0 0.0
2018-Jul-13 03:29N 47°38' W 122°23'0 0.0
2018-Jul-13 02:59N 47°38' W 122°23'0 0.0
2018-Jul-13 02:29N 47°38' W 122°23'0 0.0
2018-Jul-13 01:59N 47°38' W 122°23'0 0.0
2018-Jul-13 01:29N 47°38' W 122°23'0 0.0
2018-Jul-13 00:59N 47°38' W 122°23'0 0.0
2018-Jul-13 00:29N 47°38' W 122°23'0 0.0
2018-Jul-12 23:59N 47°38' W 122°23'0 0.0
2018-Jul-12 23:29N 47°38' W 122°23'0 0.0
2018-Jul-12 22:59N 47°38' W 122°23'0 0.0
2018-Jul-12 22:29N 47°38' W 122°23'0 0.0
2018-Jul-12 21:59N 47°38' W 122°23'0 0.0
2018-Jul-12 21:29N 47°38' W 122°23'0 0.0
2018-Jul-12 20:59N 47°38' W 122°23'0 0.0
2018-Jul-12 20:29N 47°38' W 122°23'0 0.0
2018-Jul-12 19:59N 47°38' W 122°23'0 0.0
2018-Jul-12 19:29N 47°38' W 122°23'0 0.0
2018-Jul-12 18:59N 47°38' W 122°23'0 0.0
2018-Jul-12 18:29N 47°38' W 122°23'0 0.0
2018-Jul-12 17:59N 47°38' W 122°23'0 0.0
2018-Jul-12 17:29N 47°38' W 122°23'0 0.0
2018-Jul-12 16:59N 47°38' W 122°23'0 0.0
2018-Jul-12 16:29N 47°38' W 122°23'0 0.0
2018-Jul-12 15:59N 47°38' W 122°23'0 0.0
2018-Jul-12 15:29N 47°38' W 122°23'0 0.0
2018-Jul-12 14:59N 47°38' W 122°23'0 0.0
2018-Jul-12 14:29N 47°38' W 122°23'0 0.0
2018-Jul-12 13:59N 47°38' W 122°23'0 0.0
2018-Jul-12 13:29N 47°38' W 122°23'0 0.0
2018-Jul-12 12:59N 47°38' W 122°23'0 0.0
2018-Jul-12 12:29N 47°38' W 122°23'0 0.0
2018-Jul-12 11:59N 47°38' W 122°23'0 0.0
2018-Jul-12 11:29N 47°38' W 122°23'0 0.0
2018-Jul-12 10:59N 47°38' W 122°23'0 0.0
2018-Jul-12 10:29N 47°38' W 122°23'0 0.0
2018-Jul-12 09:59N 47°38' W 122°23'0 0.0
2018-Jul-12 09:29N 47°38' W 122°23'0 0.0
2018-Jul-12 08:59N 47°38' W 122°23'0 0.0
2018-Jul-12 08:29N 47°38' W 122°23'0 0.0
2018-Jul-12 07:59N 47°38' W 122°23'0 0.0
2018-Jul-12 07:29N 47°38' W 122°23'0 0.0
2018-Jul-12 06:59N 47°38' W 122°23'0 0.0
2018-Jul-12 06:29N 47°38' W 122°23'0 0.0
2018-Jul-12 05:59N 47°38' W 122°23'0 0.0
2018-Jul-12 05:29N 47°38' W 122°23'0 0.0
2018-Jul-12 04:59N 47°38' W 122°23'0 0.0
2018-Jul-12 04:29N 47°38' W 122°23'0 0.0
2018-Jul-12 03:59N 47°38' W 122°23'0 0.0
2018-Jul-12 03:29N 47°38' W 122°23'0 0.0
2018-Jul-12 02:59N 47°38' W 122°23'0 0.0
2018-Jul-12 02:29N 47°38' W 122°23'0 0.0
2018-Jul-12 01:59N 47°38' W 122°23'0 0.0
2018-Jul-12 01:29N 47°38' W 122°23'0 0.0
2018-Jul-12 00:59N 47°38' W 122°23'0 0.0
2018-Jul-12 00:29N 47°38' W 122°23'0 0.0
2018-Jul-11 23:59N 47°38' W 122°23'0 0.0
2018-Jul-11 23:29N 47°38' W 122°23'0 0.0
2018-Jul-11 22:59N 47°38' W 122°23'0 0.0
2018-Jul-11 22:29N 47°38' W 122°23'0 0.0
2018-Jul-11 21:59N 47°38' W 122°23'0 0.0
2018-Jul-11 21:29N 47°38' W 122°23'0 0.0
2018-Jul-11 20:59N 47°38' W 122°23'0 0.0
2018-Jul-11 20:29N 47°38' W 122°23'0 0.0
2018-Jul-11 19:59N 47°38' W 122°23'0 0.0
2018-Jul-11 19:29N 47°38' W 122°23'0 0.0
2018-Jul-11 18:59N 47°38' W 122°23'0 0.0
2018-Jul-11 18:29N 47°38' W 122°23'0 0.0
2018-Jul-11 17:59N 47°38' W 122°23'0 0.0
2018-Jul-11 17:29N 47°38' W 122°23'0 0.0
2018-Jul-11 16:59N 47°38' W 122°23'0 0.0
2018-Jul-11 16:29N 47°38' W 122°23'0 0.0
2018-Jul-11 15:59N 47°38' W 122°23'0 0.0
2018-Jul-11 15:29N 47°38' W 122°23'0 0.0
2018-Jul-11 14:59N 47°38' W 122°23'0 0.0
2018-Jul-11 14:29N 47°38' W 122°23'0 0.0
2018-Jul-11 13:59N 47°38' W 122°23'0 0.0
2018-Jul-11 13:29N 47°38' W 122°23'0 0.0
2018-Jul-11 12:59N 47°38' W 122°23'0 0.0
2018-Jul-11 12:29N 47°38' W 122°23'0 0.0
2018-Jul-11 11:59N 47°38' W 122°23'0 0.0
2018-Jul-11 11:29N 47°38' W 122°23'0 0.0
2018-Jul-11 10:59N 47°38' W 122°23'0 0.0
2018-Jul-11 10:29N 47°38' W 122°23'0 0.0
2018-Jul-11 09:59N 47°38' W 122°23'0 0.0
2018-Jul-11 09:29N 47°38' W 122°23'0 0.0
2018-Jul-11 08:59N 47°38' W 122°23'0 0.0
2018-Jul-11 08:29N 47°38' W 122°23'0 0.0
2018-Jul-11 07:59N 47°38' W 122°23'0 0.0
2018-Jul-11 07:29N 47°38' W 122°23'0 0.0
2018-Jul-11 06:59N 47°38' W 122°23'0 0.0
2018-Jul-11 06:29N 47°38' W 122°23'0 0.0
2018-Jul-11 05:59N 47°38' W 122°23'0 0.0
2018-Jul-11 05:29N 47°38' W 122°23'0 0.0
2018-Jul-11 04:59N 47°38' W 122°23'0 0.0
2018-Jul-11 04:29N 47°38' W 122°23'0 0.0
2018-Jul-11 03:59N 47°38' W 122°23'0 0.0
2018-Jul-11 03:29N 47°38' W 122°23'0 0.0
2018-Jul-11 02:59N 47°38' W 122°23'0 0.0
2018-Jul-11 02:29N 47°38' W 122°23'0 0.0
2018-Jul-11 01:59N 47°38' W 122°23'0 0.0
2018-Jul-11 01:29N 47°38' W 122°23'0 0.0
2018-Jul-11 00:59N 47°38' W 122°23'0 0.0
2018-Jul-11 00:29N 47°38' W 122°23'0 0.0
2018-Jul-10 23:59N 47°38' W 122°23'0 0.0
2018-Jul-10 23:29N 47°38' W 122°23'0 0.0
2018-Jul-10 22:59N 47°38' W 122°23'0 0.0
2018-Jul-10 22:29N 47°38' W 122°23'0 0.0
2018-Jul-10 21:59N 47°38' W 122°23'0 0.0
2018-Jul-10 21:29N 47°38' W 122°23'0 0.0
2018-Jul-10 20:59N 47°38' W 122°23'0 0.0
2018-Jul-10 20:29N 47°38' W 122°23'0 0.0
2018-Jul-10 19:59N 47°38' W 122°23'0 0.0
2018-Jul-10 19:29N 47°38' W 122°23'0 0.0
2018-Jul-10 18:59N 47°38' W 122°23'0 0.0
2018-Jul-10 18:29N 47°38' W 122°23'0 0.0
2018-Jul-10 17:59N 47°38' W 122°23'0 0.0
2018-Jul-10 17:29N 47°38' W 122°23'0 0.0
2018-Jul-10 16:59N 47°38' W 122°23'  

Dump ship's entire track history